#002 Trackday in a Lotus Exige

Bidding ended
Winning bid
$2,870

About this item

Get on track in the amazing Lotus Exige v6 Cup!

The Exige Cup is powered by a 3.5 litre Toyota DOHC V6 VVT-i, 24-valve, equipped with Harrop HTV 1320 supercharger producing 345 hp (350 PS) and 400 N⋅m (295 lb⋅ft) of torque at 7,000 rpm.

It has a 6-speed Toyota EC60 close ratio manual transmission, sequential gearbox with paddleshift. 

The mid-mounted, transverse layout results in near-perfect weight distribution. 0-60 mph takes 3.8 seconds, and the top speed is 170 mph.

Value: $1,500
Bidding ended: 12:00am, 30 June 202212:00am, Thursday 30 June 2022America/Los Angeles

Bidding

Bidder Time Bid
info_56 3:05pm 25 May 2022 $2,870
User 1 3:05pm 25 May 2022 $2,860
info_56 9:10am 08 May 2022 $2,850
Pyaih Sone Aung 9:10am 08 May 2022 $2,840
info_56 7:37am 22 Apr 2022 $2,830
0987 7:37am 22 Apr 2022 $2,820
info_56 6:57pm 25 Mar 2022 $2,810
jpollard 6:57pm 25 Mar 2022 $2,800
info_56 11:00pm 20 Mar 2022 $2,700
Zahir Zahavi 11:00pm 20 Mar 2022 $2,690
info_56 11:00pm 20 Mar 2022 $2,640
Zahir Zahavi 11:00pm 20 Mar 2022 $2,630
info_56 5:07pm 10 Mar 2022 $2,620
charles.lynam 5:07pm 10 Mar 2022 $2,610
info_56 11:21pm 14 Feb 2022 $2,600
Vansona Stalony 11:21pm 14 Feb 2022 $2,590
info_56 7:22pm 17 Jan 2022 $2,030
Jen Fjord 7:22pm 17 Jan 2022 $2,020
info_56 4:41pm 05 Jan 2022 $2,010
info_56 4:41pm 05 Jan 2022 $2,000
info_56 4:39pm 05 Jan 2022 $1,500
User 1 5:07am 31 Dec 2021 $500